Time;durP1;ratioP1;P1;durP2;ratioP2;P2;SDS_P1;SDS_P2;PMS_P1;PMS_P2;Temp;Humidity;BMP_temperature;BMP_pressure;BME280_temperature;BME280_humidity;BME280_pressure;Samples;Min_cycle;Max_cycle;Signal;HPM_P1;HPM_P2
2020/12/24 00:03:48;;;;;;;8.65;0.93;;;9.60;99.90;;;;;;6753079;87;20747;-74
2020/12/24 00:13:49;;;;;;;9.93;0.95;;;9.60;99.90;;;;;;6749389;87;20204;-74
2020/12/24 00:23:49;;;;;;;6.37;0.85;;;9.50;99.90;;;;;;6743011;87;20354;-74
2020/12/24 00:33:50;;;;;;;10.20;1.30;;;9.30;99.90;;;;;;6745275;88;20181;-74
2020/12/24 00:43:51;;;;;;;6.85;0.90;;;9.10;99.90;;;;;;6748762;87;20188;-74
2020/12/24 00:53:51;;;;;;;7.87;1.02;;;9.20;99.90;;;;;;6758331;88;20205;-75
2020/12/24 01:03:52;;;;;;;7.78;1.08;;;9.10;99.90;;;;;;6754240;87;20192;-74
2020/12/24 01:13:52;;;;;;;6.47;0.90;;;8.90;99.90;;;;;;6763867;88;20201;-74
2020/12/24 01:23:53;;;;;;;8.65;0.90;;;8.70;99.90;;;;;;6755496;87;20313;-74
2020/12/24 01:33:54;;;;;;;6.28;1.00;;;8.70;99.90;;;;;;6754175;87;20608;-74
2020/12/24 01:43:55;;;;;;;5.55;0.70;;;8.80;99.90;;;;;;6756434;87;20201;-74
2020/12/24 01:53:58;;;;;;;6.68;0.70;;;9.00;99.90;;;;;;6754175;87;20673;-74
2020/12/24 02:03:59;;;;;;;6.43;0.75;;;9.10;99.90;;;;;;6750959;87;20228;-74
2020/12/24 02:14:00;;;;;;;8.45;0.93;;;9.00;99.90;;;;;;6753364;88;20776;-74
2020/12/24 02:24:00;;;;;;;6.32;0.85;;;9.00;99.90;;;;;;6752589;87;20218;-74
2020/12/24 02:34:01;;;;;;;5.72;1.00;;;9.00;99.90;;;;;;6753541;87;20181;-74
2020/12/24 02:44:02;;;;;;;5.20;0.67;;;8.90;99.90;;;;;;6750058;87;20396;-74
2020/12/24 02:54:02;;;;;;;5.82;1.00;;;8.90;99.90;;;;;;6752151;88;20496;-73
2020/12/24 03:04:03;;;;;;;6.87;1.00;;;8.90;99.90;;;;;;6751975;88;20644;-74
2020/12/24 03:14:03;;;;;;;4.68;0.75;;;8.80;99.90;;;;;;6752053;87;20288;-74
2020/12/24 03:24:05;;;;;;;8.52;1.00;;;8.70;99.90;;;;;;6751898;87;20212;-74
2020/12/24 03:34:06;;;;;;;5.95;0.70;;;8.70;99.90;;;;;;6751848;88;20188;-74
2020/12/24 03:44:06;;;;;;;6.32;0.90;;;8.60;99.90;;;;;;6748525;88;20217;-74
2020/12/24 03:54:07;;;;;;;7.63;0.90;;;8.50;99.90;;;;;;6752459;87;20752;-74
2020/12/24 04:04:07;;;;;;;7.12;0.88;;;8.40;99.90;;;;;;6751013;87;20509;-74
2020/12/24 04:14:08;;;;;;;6.72;0.75;;;8.30;99.90;;;;;;6751443;88;20695;-74
2020/12/24 04:24:08;;;;;;;6.70;0.82;;;8.40;99.90;;;;;;6754183;87;20187;-74
2020/12/24 04:34:09;;;;;;;8.80;1.25;;;8.50;99.90;;;;;;6748692;88;20301;-75
2020/12/24 04:44:10;;;;;;;6.40;0.82;;;8.40;99.90;;;;;;6747045;77;20315;-75
2020/12/24 04:54:13;;;;;;;6.97;1.05;;;8.40;99.90;;;;;;6749988;88;20275;-75
2020/12/24 05:04:17;;;;;;;5.30;0.80;;;8.40;99.90;;;;;;6746328;87;20888;-74
2020/12/24 05:14:19;;;;;;;5.90;1.30;;;8.40;99.90;;;;;;6737599;88;20247;-75
2020/12/24 05:24:28;;;;;;;4.60;0.80;;;8.40;99.90;;;;;;6736677;88;20230;-75
2020/12/24 05:34:28;;;;;;;6.65;0.70;;;8.40;99.90;;;;;;6736962;88;20705;-75
2020/12/24 05:44:29;;;;;;;2.40;0.35;;;8.50;99.90;;;;;;6738528;88;20318;-75
2020/12/24 05:54:30;;;;;;;4.10;0.43;;;8.50;99.90;;;;;;6737597;88;20200;-74
2020/12/24 06:04:43;;;;;;;2.92;0.50;;;8.40;99.90;;;;;;6742921;87;20792;-75
2020/12/24 06:14:47;;;;;;;4.80;0.60;;;8.40;99.90;;;;;;6743710;87;20802;-75
2020/12/24 06:25:00;;;;;;;3.30;0.50;;;8.50;99.90;;;;;;6739790;87;20229;-77
2020/12/24 06:35:01;;;;;;;3.85;0.55;;;8.30;99.90;;;;;;6737786;88;20205;-74
2020/12/24 06:45:06;;;;;;;4.15;0.50;;;8.10;99.90;;;;;;6739190;87;20211;-76
2020/12/24 06:55:15;;;;;;;4.45;0.40;;;8.10;99.90;;;;;;6735052;88;20348;-76
2020/12/24 07:05:40;;;;;;;3.85;0.40;;;8.20;99.90;;;;;;6740182;88;20287;-76
2020/12/24 07:15:44;;;;;;;2.37;0.50;;;8.20;99.90;;;;;;6740010;88;20680;-75
2020/12/24 07:25:46;;;;;;;1.05;0.20;;;8.10;99.90;;;;;;6738215;88;20666;-75
2020/12/24 07:35:46;;;;;;;0.90;0.40;;;8.20;99.90;;;;;;6739976;87;20737;-74
2020/12/24 07:45:47;;;;;;;0.57;0.20;;;8.10;99.90;;;;;;6743404;88;20189;-74
2020/12/24 07:55:48;;;;;;;1.02;0.32;;;8.00;99.90;;;;;;6742490;87;20699;-75
2020/12/24 08:05:49;;;;;;;1.73;0.20;;;8.10;99.90;;;;;;6748113;88;20274;-75
2020/12/24 08:15:52;;;;;;;0.62;0.20;;;8.10;99.90;;;;;;6745737;88;20791;-76
2020/12/24 08:25:55;;;;;;;0.77;0.20;;;8.10;99.90;;;;;;6746109;88;20745;-75
2020/12/24 08:36:11;;;;;;;0.73;0.10;;;8.10;99.90;;;;;;6739505;88;20214;-75
2020/12/24 08:46:15;;;;;;;1.00;0.30;;;8.20;99.90;;;;;;6738502;88;20180;-75
2020/12/24 08:56:17;;;;;;;0.60;0.20;;;8.30;99.90;;;;;;6740402;88;20216;-75
2020/12/24 09:06:18;;;;;;;0.43;0.20;;;8.40;99.90;;;;;;6743918;88;20637;-73
2020/12/24 09:16:19;;;;;;;1.67;0.22;;;8.40;99.90;;;;;;6735467;88;20355;-73
2020/12/24 09:26:19;;;;;;;2.08;0.75;;;8.40;99.90;;;;;;6744076;88;20246;-76
2020/12/24 09:36:20;;;;;;;2.10;0.30;;;8.50;99.90;;;;;;6739593;88;20310;-73
2020/12/24 09:46:21;;;;;;;1.00;0.20;;;8.60;99.90;;;;;;6738685;88;20266;-75
2020/12/24 09:56:21;;;;;;;1.87;0.45;;;8.50;99.90;;;;;;6736726;88;20192;-74
2020/12/24 10:06:24;;;;;;;3.33;0.40;;;8.30;99.90;;;;;;6740561;88;20226;-75
2020/12/24 10:16:25;;;;;;;2.50;0.70;;;8.30;99.90;;;;;;6742327;88;20208;-74
2020/12/24 10:26:26;;;;;;;1.55;0.60;;;8.20;99.90;;;;;;6742455;88;20607;-74
2020/12/24 10:46:30;;;;;;;2.72;1.27;;;8.00;99.90;;;;;;6766406;87;20211;-77
2020/12/24 10:56:30;;;;;;;5.75;3.20;;;7.90;99.90;;;;;;6757220;88;20188;-76
2020/12/24 11:06:33;;;;;;;5.10;3.47;;;7.70;99.90;;;;;;6754470;88;20508;-77
2020/12/24 11:16:34;;;;;;;2.75;1.40;;;7.40;99.90;;;;;;6757222;88;20267;-76
2020/12/24 11:26:36;;;;;;;1.62;0.80;;;7.20;99.90;;;;;;6753689;88;20235;-76
2020/12/24 11:36:37;;;;;;;1.10;0.60;;;6.70;99.90;;;;;;6757042;87;20180;-77
2020/12/24 11:46:37;;;;;;;1.05;0.50;;;6.50;99.90;;;;;;6760154;87;20241;-76
2020/12/24 11:56:38;;;;;;;1.02;0.20;;;6.50;99.90;;;;;;6757284;88;20335;-74
2020/12/24 12:06:39;;;;;;;1.15;0.40;;;6.40;99.90;;;;;;6754162;88;20191;-75
2020/12/24 12:16:39;;;;;;;0.80;0.40;;;6.20;99.90;;;;;;6759744;87;20291;-75
2020/12/24 12:26:40;;;;;;;1.10;0.40;;;6.10;99.90;;;;;;6749789;87;20320;-75
2020/12/24 12:36:40;;;;;;;0.73;0.30;;;6.10;99.90;;;;;;6757072;87;20244;-76
2020/12/24 12:46:41;;;;;;;4.32;1.02;;;5.90;99.90;;;;;;6757863;88;20785;-78
2020/12/24 12:56:44;;;;;;;2.63;1.23;;;5.80;99.90;;;;;;6757151;87;20196;-75
2020/12/24 13:06:45;;;;;;;6.40;2.12;;;5.70;99.90;;;;;;6760741;87;20530;-76
2020/12/24 13:16:49;;;;;;;3.40;2.37;;;5.50;99.90;;;;;;6757326;88;20634;-76
2020/12/24 13:26:56;;;;;;;5.45;2.97;;;5.50;99.90;;;;;;6753908;88;20215;-75
2020/12/24 13:36:57;;;;;;;13.50;7.50;;;5.40;99.90;;;;;;6755589;88;20212;-76
2020/12/24 13:46:57;;;;;;;16.37;8.48;;;5.30;99.90;;;;;;6753658;87;20197;-74
2020/12/24 13:56:58;;;;;;;13.32;6.78;;;5.10;99.90;;;;;;6757442;88;20208;-75
2020/12/24 14:06:58;;;;;;;13.48;7.05;;;5.00;99.90;;;;;;6750309;88;20508;-75
2020/12/24 14:16:59;;;;;;;11.52;6.07;;;4.80;99.90;;;;;;6758012;87;20181;-76
2020/12/24 14:27:02;;;;;;;10.93;6.37;;;4.60;99.90;;;;;;6753078;88;20218;-75
2020/12/24 14:37:02;;;;;;;15.15;6.47;;;4.70;99.90;;;;;;6761205;87;20661;-76
2020/12/24 14:47:03;;;;;;;11.60;6.30;;;4.70;99.90;;;;;;6757079;87;20181;-76
2020/12/24 14:57:03;;;;;;;8.52;4.80;;;4.80;99.90;;;;;;6757198;88;20230;-75
2020/12/24 15:07:04;;;;;;;11.95;5.53;;;4.90;99.90;;;;;;6742303;88;20243;-76
2020/12/24 15:17:04;;;;;;;11.73;6.45;;;4.90;99.90;;;;;;6758250;88;20387;-76
2020/12/24 15:27:05;;;;;;;14.20;7.50;;;4.80;99.90;;;;;;6760242;88;20180;-75
2020/12/24 15:37:05;;;;;;;15.00;7.95;;;5.00;99.90;;;;;;6753295;88;20287;-74
2020/12/24 15:47:07;;;;;;;17.83;7.70;;;4.90;99.90;;;;;;6763831;88;20299;-74
2020/12/24 15:57:07;;;;;;;15.98;8.00;;;5.00;99.90;;;;;;6755406;88;20513;-74
2020/12/24 16:07:08;;;;;;;18.08;8.98;;;5.00;99.90;;;;;;6755479;88;20209;-75
2020/12/24 16:17:08;;;;;;;15.88;8.82;;;5.10;99.90;;;;;;6761835;87;20214;-76
2020/12/24 16:27:09;;;;;;;21.58;9.27;;;5.10;99.90;;;;;;6762583;88;20614;-76
2020/12/24 16:37:10;;;;;;;17.40;8.80;;;5.30;99.90;;;;;;6758880;87;20211;-76
2020/12/24 16:47:10;;;;;;;16.75;8.65;;;5.30;99.90;;;;;;6761843;87;20270;-76
2020/12/24 16:57:11;;;;;;;17.42;8.48;;;5.20;99.90;;;;;;6755065;88;20735;-76
2020/12/24 17:07:11;;;;;;;17.50;8.20;;;5.30;99.90;;;;;;6758944;88;20231;-76
2020/12/24 17:17:12;;;;;;;16.42;7.70;;;5.30;99.90;;;;;;6761091;87;20642;-76
2020/12/24 17:27:12;;;;;;;21.77;7.32;;;5.30;99.90;;;;;;6749957;88;20197;-76
2020/12/24 17:37:13;;;;;;;14.77;6.82;;;5.40;99.90;;;;;;6744204;88;20508;-76
2020/12/24 17:47:13;;;;;;;18.80;7.40;;;5.50;99.90;;;;;;6757484;88;20241;-76
2020/12/24 17:57:14;;;;;;;18.62;6.95;;;5.40;99.90;;;;;;6756266;88;20232;-74
2020/12/24 18:07:14;;;;;;;13.45;7.00;;;5.40;99.90;;;;;;6756803;88;20185;-74
2020/12/24 18:17:15;;;;;;;18.85;6.22;;;5.50;99.90;;;;;;6752454;88;20209;-74
2020/12/24 18:27:15;;;;;;;19.10;6.25;;;5.40;99.90;;;;;;6753385;88;20236;-74
2020/12/24 18:37:16;;;;;;;12.20;5.30;;;5.40;99.90;;;;;;6752211;87;20263;-76
2020/12/24 18:47:16;;;;;;;9.13;3.67;;;5.50;99.90;;;;;;6755664;87;20298;-76
2020/12/24 18:57:21;;;;;;;8.45;3.05;;;5.40;99.90;;;;;;6752797;88;20271;-76
2020/12/24 19:07:21;;;;;;;10.48;3.10;;;5.40;99.90;;;;;;6761189;87;20214;-76
2020/12/24 19:17:22;;;;;;;11.10;3.20;;;5.30;99.90;;;;;;6758027;88;20228;-75
2020/12/24 19:27:24;;;;;;;8.52;2.28;;;5.40;99.90;;;;;;6756713;88;20210;-76
2020/12/24 19:37:25;;;;;;;9.50;2.55;;;5.30;99.90;;;;;;6751194;88;20341;-76
2020/12/24 19:47:27;;;;;;;7.15;1.92;;;5.30;99.90;;;;;;6757588;88;20213;-75
2020/12/24 19:57:29;;;;;;;8.95;1.92;;;5.20;99.90;;;;;;6757808;88;20735;-75
2020/12/24 20:07:31;;;;;;;7.62;2.58;;;5.10;99.90;;;;;;6751306;88;20995;-75
2020/12/24 20:17:34;;;;;;;10.48;2.58;;;5.10;99.90;;;;;;6753935;88;20196;-76
2020/12/24 20:27:35;;;;;;;9.52;3.08;;;5.10;99.90;;;;;;6755442;88;20185;-76
2020/12/24 20:37:36;;;;;;;9.48;2.42;;;5.10;99.90;;;;;;6753681;88;20204;-75
2020/12/24 20:47:38;;;;;;;9.52;1.98;;;5.00;99.90;;;;;;6755545;88;20574;-74
2020/12/24 20:57:38;;;;;;;8.98;2.80;;;5.00;99.90;;;;;;6761115;87;20184;-75
2020/12/24 21:07:39;;;;;;;10.93;2.83;;;4.90;99.90;;;;;;6760445;87;20696;-74
2020/12/24 21:17:40;;;;;;;11.88;2.80;;;5.00;99.90;;;;;;6767523;88;20305;-74
2020/12/24 21:27:40;;;;;;;7.85;2.45;;;4.90;99.90;;;;;;6758105;88;20368;-74
2020/12/24 21:37:42;;;;;;;9.80;3.58;;;5.00;99.90;;;;;;6757111;88;20509;-74
2020/12/24 21:47:42;;;;;;;9.48;3.87;;;5.00;99.90;;;;;;6747889;88;20857;-75
2020/12/24 21:57:43;;;;;;;8.70;3.50;;;4.90;99.90;;;;;;6751216;88;20189;-74
2020/12/24 22:07:43;;;;;;;16.58;4.95;;;4.80;99.90;;;;;;6752560;88;20269;-74
2020/12/24 22:17:44;;;;;;;11.85;4.28;;;4.90;99.90;;;;;;6752052;88;20217;-76
2020/12/24 22:27:46;;;;;;;13.32;3.75;;;4.90;99.90;;;;;;6753870;88;20324;-75
2020/12/24 22:37:47;;;;;;;9.15;3.75;;;4.90;99.90;;;;;;6758920;77;20747;-74
2020/12/24 22:47:47;;;;;;;14.52;4.18;;;4.90;99.90;;;;;;6740998;88;20180;-74
2020/12/24 22:57:48;;;;;;;12.63;4.40;;;4.80;99.90;;;;;;6740006;88;20188;-74
2020/12/24 23:07:49;;;;;;;10.02;3.83;;;4.70;99.90;;;;;;6737122;88;20205;-76
2020/12/24 23:17:58;;;;;;;13.88;4.32;;;4.70;99.90;;;;;;6742410;88;20194;-74
2020/12/24 23:27:59;;;;;;;10.20;4.35;;;4.70;99.90;;;;;;6745721;88;20218;-74
2020/12/24 23:37:59;;;;;;;11.63;5.18;;;4.70;99.90;;;;;;6749936;87;20213;-74
2020/12/24 23:48:00;;;;;;;13.35;5.97;;;4.60;99.90;;;;;;6750727;88;20209;-74
2020/12/24 23:58:00;;;;;;;13.70;6.05;;;4.70;99.90;;;;;;6743325;88;20235;-75
